sensor_id;sensor_type;location;lat;lon;timestamp;P1;durP1;ratioP1;P2;durP2;ratioP2
53062;SDS011;40529;52.172;10.548;2023-04-29T00:00:00;36.40;;;21.05;;
53062;SDS011;40529;52.172;10.548;2023-04-29T00:02:26;32.92;;;20.85;;
53062;SDS011;40529;52.172;10.548;2023-04-29T00:04:52;38.72;;;21.60;;
53062;SDS011;40529;52.172;10.548;2023-04-29T00:07:18;40.55;;;22.20;;
53062;SDS011;40529;52.172;10.548;2023-04-29T00:09:44;41.70;;;23.77;;
53062;SDS011;40529;52.172;10.548;2023-04-29T00:12:10;41.08;;;22.17;;
53062;SDS011;40529;52.172;10.548;2023-04-29T00:14:37;41.03;;;22.55;;
53062;SDS011;40529;52.172;10.548;2023-04-29T00:17:03;37.72;;;21.13;;
53062;SDS011;40529;52.172;10.548;2023-04-29T00:19:29;42.75;;;23.17;;
53062;SDS011;40529;52.172;10.548;2023-04-29T00:21:55;38.22;;;22.23;;
53062;SDS011;40529;52.172;10.548;2023-04-29T00:24:21;40.45;;;22.58;;
53062;SDS011;40529;52.172;10.548;2023-04-29T00:26:47;38.80;;;21.65;;
53062;SDS011;40529;52.172;10.548;2023-04-29T00:29:13;38.70;;;22.00;;
53062;SDS011;40529;52.172;10.548;2023-04-29T00:31:39;36.38;;;21.60;;
53062;SDS011;40529;52.172;10.548;2023-04-29T00:34:05;35.25;;;21.08;;
53062;SDS011;40529;52.172;10.548;2023-04-29T00:36:31;33.25;;;18.85;;
53062;SDS011;40529;52.172;10.548;2023-04-29T00:38:57;32.55;;;18.50;;
53062;SDS011;40529;52.172;10.548;2023-04-29T00:41:24;31.38;;;17.73;;
53062;SDS011;40529;52.172;10.548;2023-04-29T00:43:50;33.75;;;18.85;;
53062;SDS011;40529;52.172;10.548;2023-04-29T00:46:17;36.13;;;19.38;;
53062;SDS011;40529;52.172;10.548;2023-04-29T00:48:43;38.00;;;20.27;;
53062;SDS011;40529;52.172;10.548;2023-04-29T00:51:09;36.40;;;20.17;;
53062;SDS011;40529;52.172;10.548;2023-04-29T00:53:35;39.33;;;19.98;;
53062;SDS011;40529;52.172;10.548;2023-04-29T00:56:02;39.35;;;21.90;;
53062;SDS011;40529;52.172;10.548;2023-04-29T00:58:28;42.83;;;23.38;;
53062;SDS011;40529;52.172;10.548;2023-04-29T01:00:59;39.75;;;22.15;;
53062;SDS011;40529;52.172;10.548;2023-04-29T01:03:27;42.20;;;22.77;;
53062;SDS011;40529;52.172;10.548;2023-04-29T01:05:56;43.35;;;23.25;;
53062;SDS011;40529;52.172;10.548;2023-04-29T01:08:33;48.40;;;24.77;;
53062;SDS011;40529;52.172;10.548;2023-04-29T01:11:08;45.80;;;25.25;;
53062;SDS011;40529;52.172;10.548;2023-04-29T01:13:45;46.20;;;24.52;;
53062;SDS011;40529;52.172;10.548;2023-04-29T01:16:20;49.85;;;25.90;;
53062;SDS011;40529;52.172;10.548;2023-04-29T01:18:53;48.65;;;25.52;;
53062;SDS011;40529;52.172;10.548;2023-04-29T01:21:20;52.67;;;27.67;;
53062;SDS011;40529;52.172;10.548;2023-04-29T01:23:46;51.70;;;28.58;;
53062;SDS011;40529;52.172;10.548;2023-04-29T01:26:19;54.17;;;28.95;;
53062;SDS011;40529;52.172;10.548;2023-04-29T01:31:21;58.13;;;29.55;;
53062;SDS011;40529;52.172;10.548;2023-04-29T01:33:54;53.22;;;29.10;;
53062;SDS011;40529;52.172;10.548;2023-04-29T01:36:59;57.40;;;29.45;;
53062;SDS011;40529;52.172;10.548;2023-04-29T01:39:17;60.65;;;30.13;;
53062;SDS011;40529;52.172;10.548;2023-04-29T01:44:22;61.28;;;30.30;;
53062;SDS011;40529;52.172;10.548;2023-04-29T01:46:50;61.97;;;30.50;;
53062;SDS011;40529;52.172;10.548;2023-04-29T01:49:23;65.00;;;31.83;;
53062;SDS011;40529;52.172;10.548;2023-04-29T01:51:49;62.80;;;31.65;;
53062;SDS011;40529;52.172;10.548;2023-04-29T01:54:15;63.17;;;32.55;;
53062;SDS011;40529;52.172;10.548;2023-04-29T01:56:41;65.93;;;31.45;;
53062;SDS011;40529;52.172;10.548;2023-04-29T01:59:08;63.75;;;32.20;;
53062;SDS011;40529;52.172;10.548;2023-04-29T02:01:34;69.28;;;33.67;;
53062;SDS011;40529;52.172;10.548;2023-04-29T02:04:01;66.13;;;33.03;;
53062;SDS011;40529;52.172;10.548;2023-04-29T02:06:27;70.65;;;34.13;;
53062;SDS011;40529;52.172;10.548;2023-04-29T02:08:53;63.17;;;29.88;;
53062;SDS011;40529;52.172;10.548;2023-04-29T02:11:19;59.58;;;29.63;;
53062;SDS011;40529;52.172;10.548;2023-04-29T02:13:45;65.60;;;31.40;;
53062;SDS011;40529;52.172;10.548;2023-04-29T02:16:12;60.65;;;30.55;;
53062;SDS011;40529;52.172;10.548;2023-04-29T02:18:38;67.35;;;30.38;;
53062;SDS011;40529;52.172;10.548;2023-04-29T02:21:05;69.53;;;31.45;;
53062;SDS011;40529;52.172;10.548;2023-04-29T02:23:31;65.95;;;32.00;;
53062;SDS011;40529;52.172;10.548;2023-04-29T02:25:58;70.65;;;32.63;;
53062;SDS011;40529;52.172;10.548;2023-04-29T02:28:24;65.28;;;30.45;;
53062;SDS011;40529;52.172;10.548;2023-04-29T02:30:50;69.40;;;33.20;;
53062;SDS011;40529;52.172;10.548;2023-04-29T02:33:16;71.72;;;32.33;;
53062;SDS011;40529;52.172;10.548;2023-04-29T02:35:42;65.47;;;30.33;;
53062;SDS011;40529;52.172;10.548;2023-04-29T02:38:09;68.57;;;31.70;;
53062;SDS011;40529;52.172;10.548;2023-04-29T02:40:45;63.88;;;30.60;;
53062;SDS011;40529;52.172;10.548;2023-04-29T02:43:11;62.53;;;29.33;;
53062;SDS011;40529;52.172;10.548;2023-04-29T02:45:38;62.83;;;30.35;;
53062;SDS011;40529;52.172;10.548;2023-04-29T02:48:04;62.30;;;29.20;;
53062;SDS011;40529;52.172;10.548;2023-04-29T02:50:30;63.47;;;29.48;;
53062;SDS011;40529;52.172;10.548;2023-04-29T02:52:57;64.50;;;29.33;;
53062;SDS011;40529;52.172;10.548;2023-04-29T02:55:23;63.03;;;28.48;;
53062;SDS011;40529;52.172;10.548;2023-04-29T02:57:49;66.47;;;30.15;;
53062;SDS011;40529;52.172;10.548;2023-04-29T03:00:15;62.90;;;28.65;;
53062;SDS011;40529;52.172;10.548;2023-04-29T03:02:41;59.00;;;26.83;;
53062;SDS011;40529;52.172;10.548;2023-04-29T03:05:07;60.90;;;27.35;;
53062;SDS011;40529;52.172;10.548;2023-04-29T03:07:34;53.25;;;26.35;;
53062;SDS011;40529;52.172;10.548;2023-04-29T03:10:00;50.25;;;23.52;;
53062;SDS011;40529;52.172;10.548;2023-04-29T03:12:26;52.38;;;23.95;;
53062;SDS011;40529;52.172;10.548;2023-04-29T03:14:52;48.75;;;21.55;;
53062;SDS011;40529;52.172;10.548;2023-04-29T03:17:18;54.85;;;23.73;;
53062;SDS011;40529;52.172;10.548;2023-04-29T03:19:44;50.47;;;23.30;;
53062;SDS011;40529;52.172;10.548;2023-04-29T03:22:10;52.42;;;23.63;;
53062;SDS011;40529;52.172;10.548;2023-04-29T03:24:36;51.05;;;24.00;;
53062;SDS011;40529;52.172;10.548;2023-04-29T03:27:02;52.53;;;24.13;;
53062;SDS011;40529;52.172;10.548;2023-04-29T03:29:29;52.55;;;24.63;;
53062;SDS011;40529;52.172;10.548;2023-04-29T03:31:55;52.50;;;24.52;;
53062;SDS011;40529;52.172;10.548;2023-04-29T03:34:22;51.22;;;23.48;;
53062;SDS011;40529;52.172;10.548;2023-04-29T03:36:48;51.38;;;23.23;;
53062;SDS011;40529;52.172;10.548;2023-04-29T03:39:15;47.33;;;22.27;;
53062;SDS011;40529;52.172;10.548;2023-04-29T03:41:41;47.45;;;21.83;;
53062;SDS011;40529;52.172;10.548;2023-04-29T03:44:07;49.58;;;21.73;;
53062;SDS011;40529;52.172;10.548;2023-04-29T03:46:33;45.08;;;20.67;;
53062;SDS011;40529;52.172;10.548;2023-04-29T03:48:59;42.78;;;18.90;;
53062;SDS011;40529;52.172;10.548;2023-04-29T03:51:26;40.58;;;19.00;;
53062;SDS011;40529;52.172;10.548;2023-04-29T03:53:52;43.03;;;21.50;;
53062;SDS011;40529;52.172;10.548;2023-04-29T03:56:20;45.67;;;22.70;;
53062;SDS011;40529;52.172;10.548;2023-04-29T03:58:47;47.25;;;23.38;;
53062;SDS011;40529;52.172;10.548;2023-04-29T04:01:13;48.92;;;24.10;;
53062;SDS011;40529;52.172;10.548;2023-04-29T04:03:39;48.92;;;24.52;;
53062;SDS011;40529;52.172;10.548;2023-04-29T04:06:07;50.13;;;25.48;;
53062;SDS011;40529;52.172;10.548;2023-04-29T04:08:33;55.03;;;26.67;;
53062;SDS011;40529;52.172;10.548;2023-04-29T04:10:59;57.53;;;27.17;;
53062;SDS011;40529;52.172;10.548;2023-04-29T04:13:30;56.63;;;27.70;;
53062;SDS011;40529;52.172;10.548;2023-04-29T04:15:56;50.87;;;26.33;;
53062;SDS011;40529;52.172;10.548;2023-04-29T04:18:22;52.85;;;28.90;;
53062;SDS011;40529;52.172;10.548;2023-04-29T04:20:48;52.85;;;28.40;;
53062;SDS011;40529;52.172;10.548;2023-04-29T04:23:15;55.60;;;27.02;;
53062;SDS011;40529;52.172;10.548;2023-04-29T04:25:47;55.65;;;28.75;;
53062;SDS011;40529;52.172;10.548;2023-04-29T04:28:13;50.45;;;27.25;;
53062;SDS011;40529;52.172;10.548;2023-04-29T04:30:39;44.83;;;25.83;;
53062;SDS011;40529;52.172;10.548;2023-04-29T04:33:07;41.67;;;24.85;;
53062;SDS011;40529;52.172;10.548;2023-04-29T04:35:34;40.35;;;24.45;;
53062;SDS011;40529;52.172;10.548;2023-04-29T04:38:00;37.65;;;23.08;;
53062;SDS011;40529;52.172;10.548;2023-04-29T04:40:26;38.65;;;25.13;;
53062;SDS011;40529;52.172;10.548;2023-04-29T04:42:52;39.25;;;23.75;;
53062;SDS011;40529;52.172;10.548;2023-04-29T04:45:18;39.53;;;25.88;;
53062;SDS011;40529;52.172;10.548;2023-04-29T04:47:44;42.13;;;25.33;;
53062;SDS011;40529;52.172;10.548;2023-04-29T04:50:10;39.90;;;25.80;;
53062;SDS011;40529;52.172;10.548;2023-04-29T04:52:36;40.15;;;24.92;;
53062;SDS011;40529;52.172;10.548;2023-04-29T04:55:02;44.08;;;26.95;;
53062;SDS011;40529;52.172;10.548;2023-04-29T04:57:28;39.13;;;23.92;;
53062;SDS011;40529;52.172;10.548;2023-04-29T04:59:54;38.05;;;22.95;;
53062;SDS011;40529;52.172;10.548;2023-04-29T05:02:20;39.97;;;23.75;;
53062;SDS011;40529;52.172;10.548;2023-04-29T05:04:46;40.30;;;23.63;;
53062;SDS011;40529;52.172;10.548;2023-04-29T05:07:12;35.63;;;22.30;;
53062;SDS011;40529;52.172;10.548;2023-04-29T05:09:39;36.60;;;21.63;;
53062;SDS011;40529;52.172;10.548;2023-04-29T05:12:05;36.03;;;23.23;;
53062;SDS011;40529;52.172;10.548;2023-04-29T05:14:31;36.58;;;22.63;;
53062;SDS011;40529;52.172;10.548;2023-04-29T05:16:57;37.42;;;24.02;;
53062;SDS011;40529;52.172;10.548;2023-04-29T05:19:23;40.03;;;23.88;;
53062;SDS011;40529;52.172;10.548;2023-04-29T05:21:49;41.75;;;25.30;;
53062;SDS011;40529;52.172;10.548;2023-04-29T05:24:16;44.13;;;25.33;;
53062;SDS011;40529;52.172;10.548;2023-04-29T05:26:42;41.13;;;25.55;;
53062;SDS011;40529;52.172;10.548;2023-04-29T05:29:08;50.55;;;28.70;;
53062;SDS011;40529;52.172;10.548;2023-04-29T05:31:35;47.75;;;27.48;;
53062;SDS011;40529;52.172;10.548;2023-04-29T05:34:02;46.17;;;27.33;;
53062;SDS011;40529;52.172;10.548;2023-04-29T05:36:28;52.42;;;29.50;;
53062;SDS011;40529;52.172;10.548;2023-04-29T05:38:54;44.55;;;27.15;;
53062;SDS011;40529;52.172;10.548;2023-04-29T05:41:20;53.13;;;28.48;;
53062;SDS011;40529;52.172;10.548;2023-04-29T05:43:48;51.85;;;29.25;;
53062;SDS011;40529;52.172;10.548;2023-04-29T05:46:14;47.42;;;26.27;;
53062;SDS011;40529;52.172;10.548;2023-04-29T05:48:41;50.17;;;28.05;;
53062;SDS011;40529;52.172;10.548;2023-04-29T05:51:07;50.40;;;27.38;;
53062;SDS011;40529;52.172;10.548;2023-04-29T05:53:33;53.40;;;29.10;;
53062;SDS011;40529;52.172;10.548;2023-04-29T05:56:00;53.25;;;27.63;;
53062;SDS011;40529;52.172;10.548;2023-04-29T05:58:30;54.17;;;28.92;;
53062;SDS011;40529;52.172;10.548;2023-04-29T06:00:56;58.75;;;29.17;;
53062;SDS011;40529;52.172;10.548;2023-04-29T06:03:22;58.50;;;30.27;;
53062;SDS011;40529;52.172;10.548;2023-04-29T06:05:48;57.50;;;30.10;;
53062;SDS011;40529;52.172;10.548;2023-04-29T06:08:15;61.72;;;31.35;;
53062;SDS011;40529;52.172;10.548;2023-04-29T06:10:41;59.90;;;31.67;;
53062;SDS011;40529;52.172;10.548;2023-04-29T06:13:07;61.03;;;32.53;;
53062;SDS011;40529;52.172;10.548;2023-04-29T06:15:33;59.85;;;31.73;;
53062;SDS011;40529;52.172;10.548;2023-04-29T06:17:59;61.72;;;31.08;;
53062;SDS011;40529;52.172;10.548;2023-04-29T06:20:25;62.33;;;31.27;;
53062;SDS011;40529;52.172;10.548;2023-04-29T06:22:51;51.95;;;28.95;;
53062;SDS011;40529;52.172;10.548;2023-04-29T06:25:17;55.22;;;29.63;;
53062;SDS011;40529;52.172;10.548;2023-04-29T06:27:43;53.55;;;29.23;;
53062;SDS011;40529;52.172;10.548;2023-04-29T06:30:10;48.17;;;27.30;;
53062;SDS011;40529;52.172;10.548;2023-04-29T06:32:37;56.45;;;31.27;;
53062;SDS011;40529;52.172;10.548;2023-04-29T06:35:03;52.08;;;28.83;;
53062;SDS011;40529;52.172;10.548;2023-04-29T06:37:29;48.78;;;28.10;;
53062;SDS011;40529;52.172;10.548;2023-04-29T06:39:56;47.55;;;28.48;;
53062;SDS011;40529;52.172;10.548;2023-04-29T06:42:22;47.30;;;26.75;;
53062;SDS011;40529;52.172;10.548;2023-04-29T06:44:48;45.20;;;25.10;;
53062;SDS011;40529;52.172;10.548;2023-04-29T06:47:14;43.92;;;24.58;;
53062;SDS011;40529;52.172;10.548;2023-04-29T06:49:41;42.53;;;24.33;;
53062;SDS011;40529;52.172;10.548;2023-04-29T06:52:10;28.23;;;16.40;;
53062;SDS011;40529;52.172;10.548;2023-04-29T06:54:36;37.35;;;21.90;;
53062;SDS011;40529;52.172;10.548;2023-04-29T06:57:02;35.22;;;21.98;;
53062;SDS011;40529;52.172;10.548;2023-04-29T06:59:29;30.77;;;19.52;;
53062;SDS011;40529;52.172;10.548;2023-04-29T07:01:55;32.17;;;19.17;;
53062;SDS011;40529;52.172;10.548;2023-04-29T07:04:21;25.88;;;17.58;;
53062;SDS011;40529;52.172;10.548;2023-04-29T07:06:47;28.38;;;18.15;;
53062;SDS011;40529;52.172;10.548;2023-04-29T07:09:13;26.48;;;16.65;;
53062;SDS011;40529;52.172;10.548;2023-04-29T07:11:39;25.08;;;17.00;;
53062;SDS011;40529;52.172;10.548;2023-04-29T07:14:05;25.83;;;16.40;;
53062;SDS011;40529;52.172;10.548;2023-04-29T07:16:32;28.02;;;17.55;;
53062;SDS011;40529;52.172;10.548;2023-04-29T07:18:58;25.65;;;16.58;;
53062;SDS011;40529;52.172;10.548;2023-04-29T07:21:24;26.02;;;16.40;;
53062;SDS011;40529;52.172;10.548;2023-04-29T07:23:50;23.52;;;16.38;;
53062;SDS011;40529;52.172;10.548;2023-04-29T07:26:17;29.20;;;17.08;;
53062;SDS011;40529;52.172;10.548;2023-04-29T07:28:43;27.33;;;16.35;;
53062;SDS011;40529;52.172;10.548;2023-04-29T07:31:09;26.00;;;16.83;;
53062;SDS011;40529;52.172;10.548;2023-04-29T07:33:36;24.35;;;15.75;;
53062;SDS011;40529;52.172;10.548;2023-04-29T07:36:03;26.13;;;17.25;;
53062;SDS011;40529;52.172;10.548;2023-04-29T07:38:29;25.70;;;17.58;;
53062;SDS011;40529;52.172;10.548;2023-04-29T07:40:55;24.58;;;16.50;;
53062;SDS011;40529;52.172;10.548;2023-04-29T07:43:22;26.55;;;18.05;;
53062;SDS011;40529;52.172;10.548;2023-04-29T07:45:48;26.15;;;17.42;;
53062;SDS011;40529;52.172;10.548;2023-04-29T07:48:14;29.02;;;18.80;;
53062;SDS011;40529;52.172;10.548;2023-04-29T07:50:40;27.15;;;18.52;;
53062;SDS011;40529;52.172;10.548;2023-04-29T07:53:07;26.15;;;18.33;;
53062;SDS011;40529;52.172;10.548;2023-04-29T07:55:33;27.65;;;18.17;;
53062;SDS011;40529;52.172;10.548;2023-04-29T07:57:59;28.23;;;19.20;;
53062;SDS011;40529;52.172;10.548;2023-04-29T08:00:25;28.25;;;19.50;;
53062;SDS011;40529;52.172;10.548;2023-04-29T08:02:52;25.27;;;17.70;;
53062;SDS011;40529;52.172;10.548;2023-04-29T08:05:19;29.38;;;19.13;;
53062;SDS011;40529;52.172;10.548;2023-04-29T08:07:46;27.02;;;19.15;;
53062;SDS011;40529;52.172;10.548;2023-04-29T08:10:12;26.58;;;19.27;;
53062;SDS011;40529;52.172;10.548;2023-04-29T08:12:38;27.23;;;18.42;;
53062;SDS011;40529;52.172;10.548;2023-04-29T08:15:05;28.92;;;18.92;;
53062;SDS011;40529;52.172;10.548;2023-04-29T08:17:31;26.48;;;18.27;;
53062;SDS011;40529;52.172;10.548;2023-04-29T08:19:57;25.08;;;19.30;;
53062;SDS011;40529;52.172;10.548;2023-04-29T08:22:23;22.98;;;17.35;;
53062;SDS011;40529;52.172;10.548;2023-04-29T08:24:49;23.65;;;16.88;;
53062;SDS011;40529;52.172;10.548;2023-04-29T08:27:16;25.40;;;17.80;;
53062;SDS011;40529;52.172;10.548;2023-04-29T08:29:42;21.60;;;15.82;;
53062;SDS011;40529;52.172;10.548;2023-04-29T08:32:08;22.55;;;15.85;;
53062;SDS011;40529;52.172;10.548;2023-04-29T08:34:34;21.65;;;15.60;;
53062;SDS011;40529;52.172;10.548;2023-04-29T08:37:01;26.17;;;17.27;;
53062;SDS011;40529;52.172;10.548;2023-04-29T08:39:28;23.38;;;16.73;;
53062;SDS011;40529;52.172;10.548;2023-04-29T08:41:58;22.15;;;15.32;;
53062;SDS011;40529;52.172;10.548;2023-04-29T08:44:27;21.20;;;15.55;;
53062;SDS011;40529;52.172;10.548;2023-04-29T08:46:54;20.63;;;15.60;;
53062;SDS011;40529;52.172;10.548;2023-04-29T08:49:21;19.65;;;15.50;;
53062;SDS011;40529;52.172;10.548;2023-04-29T08:51:47;21.00;;;15.05;;
53062;SDS011;40529;52.172;10.548;2023-04-29T08:54:15;18.10;;;14.05;;
53062;SDS011;40529;52.172;10.548;2023-04-29T08:56:44;17.55;;;14.00;;
53062;SDS011;40529;52.172;10.548;2023-04-29T08:59:10;16.97;;;13.10;;
53062;SDS011;40529;52.172;10.548;2023-04-29T09:01:38;16.52;;;12.05;;
53062;SDS011;40529;52.172;10.548;2023-04-29T09:06:31;16.40;;;12.57;;
53062;SDS011;40529;52.172;10.548;2023-04-29T09:08:58;15.68;;;12.23;;
53062;SDS011;40529;52.172;10.548;2023-04-29T09:11:25;16.40;;;12.65;;
53062;SDS011;40529;52.172;10.548;2023-04-29T09:13:53;14.73;;;12.23;;
53062;SDS011;40529;52.172;10.548;2023-04-29T09:16:23;14.40;;;12.00;;
53062;SDS011;40529;52.172;10.548;2023-04-29T09:18:49;14.77;;;10.95;;
53062;SDS011;40529;52.172;10.548;2023-04-29T09:21:20;14.70;;;11.18;;
53062;SDS011;40529;52.172;10.548;2023-04-29T09:23:47;13.18;;;9.88;;
53062;SDS011;40529;52.172;10.548;2023-04-29T09:26:14;12.82;;;9.57;;
53062;SDS011;40529;52.172;10.548;2023-04-29T09:28:40;12.55;;;9.32;;
53062;SDS011;40529;52.172;10.548;2023-04-29T09:31:09;15.90;;;10.23;;
53062;SDS011;40529;52.172;10.548;2023-04-29T09:39:02;11.63;;;9.30;;
53062;SDS011;40529;52.172;10.548;2023-04-29T09:41:29;14.10;;;9.73;;
53062;SDS011;40529;52.172;10.548;2023-04-29T09:44:03;12.13;;;9.25;;
53062;SDS011;40529;52.172;10.548;2023-04-29T09:46:32;13.43;;;8.25;;
53062;SDS011;40529;52.172;10.548;2023-04-29T09:48:59;11.88;;;8.35;;
53062;SDS011;40529;52.172;10.548;2023-04-29T09:51:25;9.80;;;7.28;;
53062;SDS011;40529;52.172;10.548;2023-04-29T09:53:52;13.15;;;8.30;;
53062;SDS011;40529;52.172;10.548;2023-04-29T09:56:18;10.70;;;8.60;;
53062;SDS011;40529;52.172;10.548;2023-04-29T09:58:45;13.20;;;8.55;;
53062;SDS011;40529;52.172;10.548;2023-04-29T10:01:11;13.93;;;9.40;;
53062;SDS011;40529;52.172;10.548;2023-04-29T10:03:38;10.32;;;8.77;;
53062;SDS011;40529;52.172;10.548;2023-04-29T10:06:06;13.13;;;9.55;;
53062;SDS011;40529;52.172;10.548;2023-04-29T10:08:33;14.30;;;9.57;;
53062;SDS011;40529;52.172;10.548;2023-04-29T10:11:03;12.20;;;9.00;;
53062;SDS011;40529;52.172;10.548;2023-04-29T10:13:29;14.40;;;9.27;;
53062;SDS011;40529;52.172;10.548;2023-04-29T10:16:07;13.00;;;7.85;;
53062;SDS011;40529;52.172;10.548;2023-04-29T10:18:36;10.05;;;8.10;;
53062;SDS011;40529;52.172;10.548;2023-04-29T10:21:02;10.50;;;7.88;;
53062;SDS011;40529;52.172;10.548;2023-04-29T10:23:31;10.53;;;7.80;;
53062;SDS011;40529;52.172;10.548;2023-04-29T10:25:59;11.45;;;7.45;;
53062;SDS011;40529;52.172;10.548;2023-04-29T10:28:27;12.07;;;8.55;;
53062;SDS011;40529;52.172;10.548;2023-04-29T10:30:56;12.10;;;8.07;;
53062;SDS011;40529;52.172;10.548;2023-04-29T10:33:23;10.30;;;7.18;;
53062;SDS011;40529;52.172;10.548;2023-04-29T10:35:51;10.25;;;6.80;;
53062;SDS011;40529;52.172;10.548;2023-04-29T10:38:23;11.57;;;7.15;;
53062;SDS011;40529;52.172;10.548;2023-04-29T10:40:51;11.50;;;7.47;;
53062;SDS011;40529;52.172;10.548;2023-04-29T10:43:24;8.18;;;6.63;;
53062;SDS011;40529;52.172;10.548;2023-04-29T10:46:35;10.68;;;7.22;;
53062;SDS011;40529;52.172;10.548;2023-04-29T10:48:43;12.10;;;7.50;;
53062;SDS011;40529;52.172;10.548;2023-04-29T10:51:09;7.50;;;6.70;;
53062;SDS011;40529;52.172;10.548;2023-04-29T10:53:35;10.70;;;6.82;;
53062;SDS011;40529;52.172;10.548;2023-04-29T10:56:21;10.25;;;6.53;;
53062;SDS011;40529;52.172;10.548;2023-04-29T10:58:47;12.95;;;6.60;;
53062;SDS011;40529;52.172;10.548;2023-04-29T11:01:14;11.43;;;6.75;;
53062;SDS011;40529;52.172;10.548;2023-04-29T11:03:44;12.02;;;6.97;;
53062;SDS011;40529;52.172;10.548;2023-04-29T11:06:11;12.50;;;7.22;;
53062;SDS011;40529;52.172;10.548;2023-04-29T11:08:37;9.70;;;6.93;;
53062;SDS011;40529;52.172;10.548;2023-04-29T11:13:36;11.95;;;7.97;;
53062;SDS011;40529;52.172;10.548;2023-04-29T11:18:29;14.07;;;8.18;;
53062;SDS011;40529;52.172;10.548;2023-04-29T11:21:11;9.73;;;6.82;;
53062;SDS011;40529;52.172;10.548;2023-04-29T11:23:38;9.65;;;7.57;;
53062;SDS011;40529;52.172;10.548;2023-04-29T11:26:09;12.88;;;7.47;;
53062;SDS011;40529;52.172;10.548;2023-04-29T11:28:35;11.48;;;7.65;;
53062;SDS011;40529;52.172;10.548;2023-04-29T11:31:02;15.35;;;8.60;;
53062;SDS011;40529;52.172;10.548;2023-04-29T11:33:30;15.40;;;7.60;;
53062;SDS011;40529;52.172;10.548;2023-04-29T11:35:56;11.82;;;8.07;;
53062;SDS011;40529;52.172;10.548;2023-04-29T11:38:26;13.30;;;7.45;;
53062;SDS011;40529;52.172;10.548;2023-04-29T11:43:22;12.05;;;7.50;;
53062;SDS011;40529;52.172;10.548;2023-04-29T11:45:49;10.75;;;7.18;;
53062;SDS011;40529;52.172;10.548;2023-04-29T11:48:24;12.10;;;6.97;;
53062;SDS011;40529;52.172;10.548;2023-04-29T11:50:52;10.65;;;7.53;;
53062;SDS011;40529;52.172;10.548;2023-04-29T11:53:18;11.38;;;7.25;;
53062;SDS011;40529;52.172;10.548;2023-04-29T11:55:45;8.93;;;7.55;;
53062;SDS011;40529;52.172;10.548;2023-04-29T11:58:11;10.07;;;7.05;;
53062;SDS011;40529;52.172;10.548;2023-04-29T12:00:39;13.60;;;7.88;;
53062;SDS011;40529;52.172;10.548;2023-04-29T12:05:58;12.07;;;7.43;;
53062;SDS011;40529;52.172;10.548;2023-04-29T12:08:26;11.55;;;7.95;;
53062;SDS011;40529;52.172;10.548;2023-04-29T12:10:53;10.25;;;7.72;;
53062;SDS011;40529;52.172;10.548;2023-04-29T12:13:20;10.02;;;7.22;;
53062;SDS011;40529;52.172;10.548;2023-04-29T12:15:48;9.30;;;7.28;;
53062;SDS011;40529;52.172;10.548;2023-04-29T12:18:15;11.35;;;7.70;;
53062;SDS011;40529;52.172;10.548;2023-04-29T12:20:42;9.88;;;7.47;;
53062;SDS011;40529;52.172;10.548;2023-04-29T12:25:37;11.10;;;8.38;;
53062;SDS011;40529;52.172;10.548;2023-04-29T12:28:05;12.85;;;7.63;;
53062;SDS011;40529;52.172;10.548;2023-04-29T12:30:33;9.57;;;7.30;;
53062;SDS011;40529;52.172;10.548;2023-04-29T12:33:01;10.90;;;7.38;;
53062;SDS011;40529;52.172;10.548;2023-04-29T12:35:27;12.23;;;7.88;;
53062;SDS011;40529;52.172;10.548;2023-04-29T12:37:53;11.98;;;7.68;;
53062;SDS011;40529;52.172;10.548;2023-04-29T12:40:19;9.98;;;7.30;;
53062;SDS011;40529;52.172;10.548;2023-04-29T12:42:45;9.38;;;7.47;;
53062;SDS011;40529;52.172;10.548;2023-04-29T12:45:30;10.98;;;6.82;;
53062;SDS011;40529;52.172;10.548;2023-04-29T12:47:57;11.88;;;6.80;;
53062;SDS011;40529;52.172;10.548;2023-04-29T12:50:30;9.00;;;5.90;;
53062;SDS011;40529;52.172;10.548;2023-04-29T12:52:57;11.10;;;6.05;;
53062;SDS011;40529;52.172;10.548;2023-04-29T12:55:23;11.63;;;6.88;;
53062;SDS011;40529;52.172;10.548;2023-04-29T12:57:49;9.38;;;5.82;;
53062;SDS011;40529;52.172;10.548;2023-04-29T13:00:15;5.72;;;5.07;;
53062;SDS011;40529;52.172;10.548;2023-04-29T13:02:41;10.50;;;6.35;;
53062;SDS011;40529;52.172;10.548;2023-04-29T13:05:07;12.18;;;6.00;;
53062;SDS011;40529;52.172;10.548;2023-04-29T13:07:33;8.48;;;5.88;;
53062;SDS011;40529;52.172;10.548;2023-04-29T13:10:00;11.13;;;6.68;;
53062;SDS011;40529;52.172;10.548;2023-04-29T13:12:26;9.07;;;5.95;;
53062;SDS011;40529;52.172;10.548;2023-04-29T13:14:52;8.23;;;6.15;;
53062;SDS011;40529;52.172;10.548;2023-04-29T13:17:19;10.85;;;6.55;;
53062;SDS011;40529;52.172;10.548;2023-04-29T13:19:45;9.30;;;6.35;;
53062;SDS011;40529;52.172;10.548;2023-04-29T13:22:11;7.95;;;5.95;;
53062;SDS011;40529;52.172;10.548;2023-04-29T13:24:37;9.52;;;6.32;;
53062;SDS011;40529;52.172;10.548;2023-04-29T13:27:03;7.63;;;6.15;;
53062;SDS011;40529;52.172;10.548;2023-04-29T13:29:29;9.35;;;6.20;;
53062;SDS011;40529;52.172;10.548;2023-04-29T13:31:55;10.02;;;7.38;;
53062;SDS011;40529;52.172;10.548;2023-04-29T13:34:21;9.95;;;6.78;;
53062;SDS011;40529;52.172;10.548;2023-04-29T13:36:48;10.95;;;6.50;;
53062;SDS011;40529;52.172;10.548;2023-04-29T13:39:14;8.48;;;5.57;;
53062;SDS011;40529;52.172;10.548;2023-04-29T13:41:41;8.32;;;5.80;;
53062;SDS011;40529;52.172;10.548;2023-04-29T13:44:07;7.10;;;5.72;;
53062;SDS011;40529;52.172;10.548;2023-04-29T13:46:33;7.30;;;5.57;;
53062;SDS011;40529;52.172;10.548;2023-04-29T13:48:59;8.90;;;6.30;;
53062;SDS011;40529;52.172;10.548;2023-04-29T13:51:26;9.60;;;5.40;;
53062;SDS011;40529;52.172;10.548;2023-04-29T13:53:52;8.70;;;5.82;;
53062;SDS011;40529;52.172;10.548;2023-04-29T13:56:18;7.20;;;5.65;;
53062;SDS011;40529;52.172;10.548;2023-04-29T13:58:45;7.22;;;5.18;;
53062;SDS011;40529;52.172;10.548;2023-04-29T14:01:11;8.20;;;5.03;;
53062;SDS011;40529;52.172;10.548;2023-04-29T14:03:37;6.60;;;4.65;;
53062;SDS011;40529;52.172;10.548;2023-04-29T14:06:03;10.00;;;5.70;;
53062;SDS011;40529;52.172;10.548;2023-04-29T14:08:30;8.98;;;5.30;;
53062;SDS011;40529;52.172;10.548;2023-04-29T14:10:56;8.48;;;5.18;;
53062;SDS011;40529;52.172;10.548;2023-04-29T14:13:22;7.30;;;4.65;;
53062;SDS011;40529;52.172;10.548;2023-04-29T14:15:49;5.60;;;4.78;;
53062;SDS011;40529;52.172;10.548;2023-04-29T14:18:15;5.43;;;4.40;;
53062;SDS011;40529;52.172;10.548;2023-04-29T14:20:41;7.85;;;4.32;;
53062;SDS011;40529;52.172;10.548;2023-04-29T14:23:07;8.55;;;4.80;;
53062;SDS011;40529;52.172;10.548;2023-04-29T14:25:33;7.05;;;4.43;;
53062;SDS011;40529;52.172;10.548;2023-04-29T14:27:59;7.45;;;4.70;;
53062;SDS011;40529;52.172;10.548;2023-04-29T14:30:25;5.90;;;4.85;;
53062;SDS011;40529;52.172;10.548;2023-04-29T14:32:51;7.53;;;5.13;;
53062;SDS011;40529;52.172;10.548;2023-04-29T14:35:17;7.68;;;4.65;;
53062;SDS011;40529;52.172;10.548;2023-04-29T14:37:43;7.15;;;4.60;;
53062;SDS011;40529;52.172;10.548;2023-04-29T14:40:10;7.43;;;4.97;;